Time;durP1;ratioP1;P1;durP2;ratioP2;P2;SDS_P1;SDS_P2;PMS_P1;PMS_P2;Temp;Humidity;BMP_temperature;BMP_pressure;BME280_temperature;BME280_humidity;BME280_pressure;Samples;Min_cycle;Max_cycle;Signal;HPM_P1;HPM_P2
2022/10/22 00:01:39;;;;;;;0.50;0.40;;;14.40;99.90;;;;;;5051059;28;20443;-75
2022/10/22 00:04:06;;;;;;;0.73;0.67;;;14.50;99.90;;;;;;5050813;28;20906;-75
2022/10/22 00:06:33;;;;;;;0.50;0.40;;;14.50;99.90;;;;;;5050811;28;20532;-75
2022/10/22 00:09:01;;;;;;;0.50;0.37;;;14.50;99.90;;;;;;5051117;28;20886;-74
2022/10/22 00:11:28;;;;;;;0.50;0.40;;;14.60;99.90;;;;;;5050869;28;20980;-75
2022/10/22 00:13:55;;;;;;;0.50;0.40;;;14.60;99.90;;;;;;5050521;28;20447;-73
2022/10/22 00:16:22;;;;;;;0.50;0.40;;;14.60;99.90;;;;;;5053448;28;20441;-75
2022/10/22 00:18:49;;;;;;;0.70;0.70;;;14.60;99.90;;;;;;5054680;28;20428;-74
2022/10/22 00:21:15;;;;;;;0.50;0.40;;;14.70;99.90;;;;;;5055043;28;21022;-73
2022/10/22 00:23:43;;;;;;;0.50;0.40;;;14.60;99.90;;;;;;5055011;28;20527;-75
2022/10/22 00:26:11;;;;;;;0.50;0.40;;;14.60;99.90;;;;;;5054479;28;20447;-75
2022/10/22 00:28:38;;;;;;;0.50;0.40;;;14.60;99.90;;;;;;5054450;28;20508;-75
2022/10/22 00:31:06;;;;;;;0.60;0.43;;;14.60;99.90;;;;;;5055003;28;20783;-74
2022/10/22 00:33:33;;;;;;;0.50;0.40;;;14.60;99.90;;;;;;5054536;28;20460;-75
2022/10/22 00:36:00;;;;;;;1.20;0.77;;;14.60;99.90;;;;;;5054327;28;20443;-74
2022/10/22 00:38:27;;;;;;;0.50;0.40;;;14.60;99.90;;;;;;5054601;28;20433;-74
2022/10/22 00:40:54;;;;;;;0.50;0.40;;;14.60;99.90;;;;;;5054432;28;20465;-75
2022/10/22 00:43:22;;;;;;;0.50;0.40;;;14.70;99.90;;;;;;5054175;28;20968;-74
2022/10/22 00:45:49;;;;;;;0.50;0.30;;;14.70;99.90;;;;;;5054183;28;20879;-75
2022/10/22 00:48:20;;;;;;;1.33;0.90;;;14.70;99.90;;;;;;5054500;28;20472;-74
2022/10/22 00:50:50;;;;;;;0.97;0.93;;;14.70;99.90;;;;;;5054833;28;20468;-75
2022/10/22 00:53:22;;;;;;;0.50;0.40;;;14.70;99.90;;;;;;5054283;28;20441;-74
2022/10/22 00:55:52;;;;;;;0.50;0.40;;;14.70;99.90;;;;;;5054117;28;20436;-74
2022/10/22 00:58:21;;;;;;;0.60;0.53;;;14.70;99.90;;;;;;5054019;28;20425;-74
2022/10/22 01:00:49;;;;;;;1.17;1.07;;;14.70;99.90;;;;;;5054102;28;20796;-75
2022/10/22 01:03:16;;;;;;;0.60;0.50;;;14.80;99.90;;;;;;5054295;28;20439;-75
2022/10/22 01:05:50;;;;;;;0.50;0.30;;;14.70;99.90;;;;;;5053388;28;20441;-75
2022/10/22 01:08:23;;;;;;;0.50;0.40;;;14.70;99.90;;;;;;5054092;28;20496;-73
2022/10/22 01:10:59;;;;;;;0.50;0.40;;;14.70;99.90;;;;;;5053686;28;20485;-74
2022/10/22 01:13:34;;;;;;;0.50;0.37;;;14.70;99.90;;;;;;5053352;28;20431;-74
2022/10/22 01:16:11;;;;;;;0.50;0.40;;;14.70;99.90;;;;;;5053817;28;20816;-73
2022/10/22 01:18:47;;;;;;;0.50;0.40;;;14.80;99.90;;;;;;5053785;28;20923;-74
2022/10/22 01:21:26;;;;;;;0.50;0.30;;;14.70;99.90;;;;;;5053544;28;21002;-75
2022/10/22 01:24:24;;;;;;;0.50;0.40;;;14.70;99.90;;;;;;5053393;28;20425;-74
2022/10/22 01:27:03;;;;;;;0.50;0.47;;;14.60;99.90;;;;;;5053215;28;20428;-73
2022/10/22 01:29:37;;;;;;;0.50;0.50;;;14.70;99.90;;;;;;5053406;28;21024;-74
2022/10/22 01:32:09;;;;;;;0.50;0.40;;;14.70;99.90;;;;;;5053166;28;20434;-74
2022/10/22 01:34:39;;;;;;;0.50;0.30;;;14.70;99.90;;;;;;5053515;28;20445;-75
2022/10/22 01:37:06;;;;;;;1.60;1.00;;;14.70;99.90;;;;;;5053452;28;20810;-74
2022/10/22 01:39:34;;;;;;;0.50;0.40;;;14.70;99.90;;;;;;5053367;28;20457;-75
2022/10/22 01:42:01;;;;;;;0.50;0.30;;;14.70;99.90;;;;;;5052995;28;20525;-75
2022/10/22 01:44:30;;;;;;;1.33;0.70;;;14.60;99.90;;;;;;5052719;28;20955;-75
2022/10/22 01:47:08;;;;;;;1.17;0.83;;;14.70;99.90;;;;;;5053380;28;20810;-74
2022/10/22 01:49:48;;;;;;;34.80;2.97;;;14.70;99.90;;;;;;5052970;28;20489;-75
2022/10/22 01:52:25;;;;;;;0.50;0.40;;;14.70;99.90;;;;;;5053049;28;20437;-75
2022/10/22 01:54:59;;;;;;;0.60;0.60;;;14.70;99.90;;;;;;5052663;28;20451;-75
2022/10/22 01:57:36;;;;;;;0.50;0.30;;;14.70;99.90;;;;;;5053209;28;20797;-75
2022/10/22 02:00:08;;;;;;;2.17;2.03;;;14.70;99.90;;;;;;5053076;28;20476;-75
2022/10/22 02:02:42;;;;;;;0.90;0.90;;;14.70;99.90;;;;;;5052560;28;20436;-75
2022/10/22 02:05:13;;;;;;;0.50;0.40;;;14.80;99.90;;;;;;5053044;28;20790;-75
2022/10/22 02:07:43;;;;;;;0.50;0.40;;;14.70;99.90;;;;;;5052431;28;20434;-75
2022/10/22 02:10:11;;;;;;;1.77;1.27;;;14.70;99.90;;;;;;5052545;28;21009;-75
2022/10/22 02:12:40;;;;;;;0.50;0.40;;;14.70;99.90;;;;;;5052814;28;20451;-75
2022/10/22 02:15:09;;;;;;;0.50;0.30;;;14.70;99.90;;;;;;5051793;28;20944;-75
2022/10/22 02:17:39;;;;;;;0.60;0.50;;;14.70;99.90;;;;;;5052578;28;20466;-75
2022/10/22 02:20:10;;;;;;;3.50;1.53;;;14.70;99.90;;;;;;5052792;28;20460;-75
2022/10/22 02:22:37;;;;;;;0.50;0.40;;;14.70;99.90;;;;;;5052731;28;20811;-75
2022/10/22 02:25:06;;;;;;;0.50;0.50;;;14.70;99.90;;;;;;5052365;28;20437;-75
2022/10/22 02:27:40;;;;;;;0.50;0.40;;;14.70;99.90;;;;;;5052153;28;20927;-75
2022/10/22 02:30:10;;;;;;;1.90;0.60;;;14.70;99.90;;;;;;5052626;28;20493;-74
2022/10/22 02:32:43;;;;;;;0.60;0.53;;;14.70;99.90;;;;;;5051921;28;20484;-75
2022/10/22 02:35:13;;;;;;;1.30;1.17;;;14.80;99.90;;;;;;5052120;28;20437;-75
2022/10/22 02:37:40;;;;;;;1.50;1.40;;;14.80;99.90;;;;;;5051500;28;20532;-75
2022/10/22 02:40:08;;;;;;;0.80;0.80;;;14.80;99.90;;;;;;5051914;28;21012;-75
2022/10/22 02:42:36;;;;;;;2.13;1.73;;;14.80;99.90;;;;;;5052230;28;20441;-75
2022/10/22 02:45:03;;;;;;;0.80;0.50;;;14.90;99.90;;;;;;5051861;28;20553;-75
2022/10/22 02:47:30;;;;;;;0.87;0.87;;;14.90;99.90;;;;;;5052117;28;20451;-75
2022/10/22 02:49:58;;;;;;;0.50;0.40;;;14.90;99.90;;;;;;5051652;28;20481;-75
2022/10/22 02:52:25;;;;;;;1.00;0.80;;;14.90;99.90;;;;;;5051847;28;20443;-75
2022/10/22 02:54:51;;;;;;;1.50;0.93;;;14.90;99.90;;;;;;5051262;28;20433;-75
2022/10/22 02:57:18;;;;;;;0.50;0.40;;;14.90;99.90;;;;;;5051881;28;20452;-75
2022/10/22 02:59:45;;;;;;;1.20;1.00;;;14.90;99.90;;;;;;5051993;28;20463;-75
2022/10/22 03:02:12;;;;;;;1.17;0.70;;;14.90;99.90;;;;;;5051842;28;20451;-75
2022/10/22 03:04:39;;;;;;;0.50;0.43;;;14.90;99.90;;;;;;5051577;28;20536;-75
2022/10/22 03:07:07;;;;;;;0.60;0.60;;;14.90;99.90;;;;;;5051837;28;20443;-76
2022/10/22 03:09:33;;;;;;;0.80;0.80;;;14.80;99.90;;;;;;5051086;28;21021;-76
2022/10/22 03:12:00;;;;;;;0.50;0.37;;;14.80;99.90;;;;;;5051609;28;20469;-75
2022/10/22 03:14:27;;;;;;;0.53;0.50;;;14.80;99.90;;;;;;5051056;28;20467;-75
2022/10/22 03:16:54;;;;;;;0.60;0.57;;;14.70;99.90;;;;;;5052202;28;20532;-76
2022/10/22 03:19:21;;;;;;;0.50;0.40;;;14.70;99.90;;;;;;5051470;28;20437;-75
2022/10/22 03:21:50;;;;;;;0.87;0.87;;;14.60;99.90;;;;;;5052119;28;20516;-76
2022/10/22 03:24:22;;;;;;;0.50;0.40;;;14.60;99.90;;;;;;5051129;28;20443;-75
2022/10/22 03:26:51;;;;;;;0.50;0.40;;;14.60;99.90;;;;;;5051682;28;20538;-75
2022/10/22 03:29:21;;;;;;;0.50;0.30;;;14.70;99.90;;;;;;5051269;28;20437;-75
2022/10/22 03:31:48;;;;;;;1.30;1.30;;;14.60;99.90;;;;;;5051721;28;20443;-75
2022/10/22 03:34:15;;;;;;;26.27;24.00;;;14.60;99.90;;;;;;5050643;28;20443;-75
2022/10/22 03:36:42;;;;;;;0.50;0.50;;;14.60;99.90;;;;;;5051322;28;20437;-75
2022/10/22 03:39:11;;;;;;;3.47;0.70;;;14.50;99.90;;;;;;5051080;28;20937;-75
2022/10/22 03:41:40;;;;;;;1.70;1.60;;;14.50;99.90;;;;;;5051287;28;20443;-75
2022/10/22 03:44:07;;;;;;;1.57;0.87;;;14.50;99.90;;;;;;5050995;28;20445;-76
2022/10/22 03:46:34;;;;;;;0.50;0.30;;;14.50;99.90;;;;;;5050870;28;20453;-75
2022/10/22 03:49:00;;;;;;;3.20;2.97;;;14.40;99.90;;;;;;5051904;28;20467;-76
2022/10/22 03:51:27;;;;;;;0.77;0.77;;;14.40;99.90;;;;;;5055230;28;20502;-75
2022/10/22 03:53:54;;;;;;;0.50;0.40;;;14.40;99.90;;;;;;5055109;28;20437;-75
2022/10/22 03:56:22;;;;;;;1.67;1.23;;;14.50;99.90;;;;;;5055312;28;20445;-75
2022/10/22 03:58:50;;;;;;;0.60;0.60;;;14.40;99.90;;;;;;5055092;28;20436;-75
2022/10/22 04:01:17;;;;;;;0.50;0.40;;;14.50;99.90;;;;;;5055372;28;20466;-75
2022/10/22 04:03:44;;;;;;;0.50;0.30;;;14.50;99.90;;;;;;5055389;28;20818;-75
2022/10/22 04:06:12;;;;;;;0.50;0.40;;;14.40;99.90;;;;;;5054771;28;20436;-75
2022/10/22 04:08:41;;;;;;;1.07;0.97;;;14.40;99.90;;;;;;5055217;28;20802;-75
2022/10/22 04:11:08;;;;;;;0.77;0.70;;;14.40;99.90;;;;;;5055119;28;20845;-74
2022/10/22 04:13:35;;;;;;;1.03;1.03;;;14.40;99.90;;;;;;5054419;28;20441;-76
2022/10/22 04:16:11;;;;;;;1.47;0.90;;;14.40;99.90;;;;;;5054556;28;20451;-75
2022/10/22 04:18:38;;;;;;;0.50;0.30;;;14.40;99.90;;;;;;5054484;28;21010;-75
2022/10/22 04:21:06;;;;;;;0.50;0.40;;;14.50;99.90;;;;;;5054745;28;20453;-75
2022/10/22 04:23:33;;;;;;;0.50;0.30;;;14.50;99.90;;;;;;5054790;28;20440;-76
2022/10/22 04:26:01;;;;;;;1.63;1.53;;;14.50;99.90;;;;;;5054515;28;20436;-76
2022/10/22 04:28:28;;;;;;;0.50;0.40;;;14.50;99.90;;;;;;5054740;28;20810;-75
2022/10/22 04:30:55;;;;;;;0.50;0.40;;;14.50;99.90;;;;;;5054787;28;20485;-75
2022/10/22 04:33:23;;;;;;;0.50;0.40;;;14.40;99.90;;;;;;5054676;28;20433;-75
2022/10/22 04:35:50;;;;;;;0.50;0.40;;;14.40;99.90;;;;;;5054168;28;20452;-75
2022/10/22 04:38:17;;;;;;;0.50;0.40;;;14.40;99.90;;;;;;5054341;28;20451;-75
2022/10/22 04:40:44;;;;;;;0.50;0.40;;;14.40;99.90;;;;;;5054634;28;20540;-75
2022/10/22 04:43:10;;;;;;;0.50;0.40;;;14.40;99.90;;;;;;5054503;28;20441;-75
2022/10/22 04:45:37;;;;;;;0.50;0.40;;;14.40;99.90;;;;;;5054413;28;20535;-73
2022/10/22 04:48:04;;;;;;;0.50;0.40;;;14.40;99.90;;;;;;5054773;28;20519;-75
2022/10/22 04:50:33;;;;;;;0.50;0.40;;;14.50;99.90;;;;;;5053771;28;20516;-75
2022/10/22 04:52:59;;;;;;;0.50;0.30;;;14.50;99.90;;;;;;5054001;28;20432;-75
2022/10/22 04:55:26;;;;;;;4.20;1.43;;;14.50;99.90;;;;;;5053796;28;20934;-75
2022/10/22 04:57:53;;;;;;;1.63;0.80;;;14.60;99.90;;;;;;5054168;28;20452;-75
2022/10/22 05:00:20;;;;;;;1.57;0.93;;;14.50;99.90;;;;;;5053861;28;20540;-75
2022/10/22 05:02:49;;;;;;;0.50;0.47;;;14.50;99.90;;;;;;5053421;28;20799;-75
2022/10/22 05:05:16;;;;;;;0.53;0.53;;;14.40;99.90;;;;;;5053690;28;20441;-75
2022/10/22 05:07:44;;;;;;;0.77;0.77;;;14.40;99.90;;;;;;5054242;28;20445;-75
2022/10/22 05:10:11;;;;;;;0.67;0.67;;;14.40;99.90;;;;;;5054181;28;20553;-75
2022/10/22 05:12:38;;;;;;;0.50;0.40;;;14.30;99.90;;;;;;5053845;28;20440;-76
2022/10/22 05:15:06;;;;;;;1.27;1.17;;;14.20;99.90;;;;;;5052398;28;20524;-74
2022/10/22 05:17:36;;;;;;;0.50;0.40;;;14.30;99.90;;;;;;5053708;28;20441;-75
2022/10/22 05:20:03;;;;;;;0.50;0.43;;;14.30;99.90;;;;;;5053754;28;20469;-75
2022/10/22 05:22:30;;;;;;;0.70;0.60;;;14.30;99.90;;;;;;5053665;28;20446;-74
2022/10/22 05:24:58;;;;;;;0.50;0.43;;;14.30;99.90;;;;;;5053260;28;20437;-75
2022/10/22 05:27:25;;;;;;;0.83;0.80;;;14.30;99.90;;;;;;5053834;28;20479;-75
2022/10/22 05:29:52;;;;;;;0.67;0.67;;;14.20;99.90;;;;;;5053081;28;20465;-75
2022/10/22 05:32:19;;;;;;;0.50;0.40;;;14.20;99.90;;;;;;5053992;28;20814;-75
2022/10/22 05:34:45;;;;;;;0.50;0.50;;;14.20;99.90;;;;;;5052991;28;20444;-75
2022/10/22 05:37:12;;;;;;;0.70;0.47;;;14.20;99.90;;;;;;5053610;28;20532;-75
2022/10/22 05:39:40;;;;;;;0.50;0.40;;;14.10;99.90;;;;;;5052993;28;20453;-75
2022/10/22 05:42:08;;;;;;;1.10;0.50;;;14.10;99.90;;;;;;5053790;28;20449;-75
2022/10/22 05:44:35;;;;;;;0.50;0.40;;;14.10;99.90;;;;;;5052595;28;20453;-75
2022/10/22 05:47:02;;;;;;;0.67;0.67;;;14.00;99.90;;;;;;5053407;28;20453;-75
2022/10/22 05:49:29;;;;;;;0.50;0.37;;;14.10;99.90;;;;;;5053036;28;20836;-75
2022/10/22 05:51:55;;;;;;;1.93;1.83;;;14.10;99.90;;;;;;5052944;28;20571;-75
2022/10/22 05:54:22;;;;;;;0.50;0.40;;;14.10;99.90;;;;;;5053121;28;20428;-75
2022/10/22 05:56:49;;;;;;;1.13;0.73;;;14.10;99.90;;;;;;5053109;28;20445;-75
2022/10/22 05:59:17;;;;;;;0.70;0.40;;;14.10;99.90;;;;;;5053108;28;20452;-75
2022/10/22 06:01:44;;;;;;;0.50;0.40;;;14.10;99.90;;;;;;5053081;28;20527;-75
2022/10/22 06:04:12;;;;;;;0.50;0.40;;;14.10;99.90;;;;;;5052774;28;20465;-75
2022/10/22 06:06:42;;;;;;;1.40;1.30;;;14.10;99.90;;;;;;5052420;28;20436;-75
2022/10/22 06:09:16;;;;;;;2.30;1.57;;;14.00;99.90;;;;;;5053029;28;20444;-75
2022/10/22 06:11:43;;;;;;;0.50;0.40;;;14.00;99.90;;;;;;5052631;28;20488;-74
2022/10/22 06:14:10;;;;;;;0.87;0.53;;;14.10;99.90;;;;;;5051821;28;20639;-75
2022/10/22 06:16:38;;;;;;;0.50;0.40;;;14.10;99.90;;;;;;5052515;28;20489;-74
2022/10/22 06:19:05;;;;;;;0.50;0.40;;;14.10;99.90;;;;;;5053091;28;20444;-74
2022/10/22 06:21:32;;;;;;;0.60;0.60;;;14.10;99.90;;;;;;5052555;28;20810;-75
2022/10/22 06:24:00;;;;;;;1.00;0.83;;;14.10;99.90;;;;;;5052155;28;20875;-75
2022/10/22 06:26:27;;;;;;;0.50;0.40;;;14.10;99.90;;;;;;5052596;28;20814;-75
2022/10/22 06:28:55;;;;;;;0.87;0.87;;;14.20;99.90;;;;;;5052406;28;20946;-75
2022/10/22 06:31:22;;;;;;;1.17;0.60;;;14.20;99.90;;;;;;5052077;28;20480;-75
2022/10/22 06:33:50;;;;;;;0.50;0.37;;;14.20;99.90;;;;;;5052079;28;20574;-75
2022/10/22 06:36:22;;;;;;;0.50;0.40;;;14.30;99.90;;;;;;5052166;28;20441;-72
2022/10/22 06:38:52;;;;;;;0.50;0.50;;;14.30;99.90;;;;;;5052355;28;20425;-74
2022/10/22 06:41:18;;;;;;;1.40;1.20;;;14.40;99.90;;;;;;5052265;28;20467;-74
2022/10/22 06:43:46;;;;;;;3.50;1.80;;;14.40;99.90;;;;;;5052362;28;20775;-75
2022/10/22 06:46:14;;;;;;;0.83;0.70;;;14.50;99.90;;;;;;5051811;28;20441;-75
2022/10/22 06:48:41;;;;;;;0.50;0.40;;;14.50;99.90;;;;;;5052237;28;20531;-75
2022/10/22 06:51:11;;;;;;;0.77;0.77;;;14.60;99.90;;;;;;5051718;28;21041;-75
2022/10/22 06:53:39;;;;;;;1.20;1.10;;;14.60;99.90;;;;;;5053022;28;20520;-77
2022/10/22 06:56:07;;;;;;;1.37;1.37;;;14.60;99.90;;;;;;5051487;28;20443;-74
2022/10/22 06:58:34;;;;;;;0.60;0.50;;;14.60;99.90;;;;;;5051852;28;20437;-74
2022/10/22 07:01:02;;;;;;;0.50;0.40;;;14.60;99.90;;;;;;5052140;28;20459;-76
2022/10/22 07:03:29;;;;;;;0.50;0.40;;;14.60;99.90;;;;;;5051431;28;20476;-76
2022/10/22 07:05:58;;;;;;;0.53;0.43;;;14.60;99.90;;;;;;5051226;28;20437;-76
2022/10/22 07:08:26;;;;;;;0.63;0.47;;;14.60;99.90;;;;;;5056362;28;20436;-75
2022/10/22 07:10:53;;;;;;;0.77;0.77;;;14.80;99.90;;;;;;5051641;28;20483;-74
2022/10/22 07:13:20;;;;;;;0.60;0.50;;;15.10;99.90;;;;;;5050637;28;20930;-74
2022/10/22 07:15:52;;;;;;;0.50;0.30;;;15.50;99.90;;;;;;5051309;28;20806;-74
2022/10/22 07:18:19;;;;;;;59.33;2.43;;;15.90;99.90;;;;;;5051914;28;20430;-74
2022/10/22 07:20:47;;;;;;;0.70;0.70;;;16.20;99.90;;;;;;5051676;28;20556;-74
2022/10/22 07:23:14;;;;;;;0.50;0.47;;;16.50;99.90;;;;;;5051150;28;20437;-74
2022/10/22 07:25:42;;;;;;;2.00;0.90;;;16.80;99.90;;;;;;5050510;28;20826;-75
2022/10/22 07:28:10;;;;;;;0.90;0.50;;;17.40;99.90;;;;;;5051244;28;20441;-75
2022/10/22 07:30:37;;;;;;;0.50;0.40;;;17.80;99.90;;;;;;5051283;28;20468;-75
2022/10/22 07:33:05;;;;;;;0.97;0.97;;;18.20;99.90;;;;;;5051505;28;20436;-74
2022/10/22 07:35:33;;;;;;;1.13;1.03;;;18.50;99.90;;;;;;5050885;28;20433;-75
2022/10/22 07:38:00;;;;;;;3.33;0.93;;;18.70;99.90;;;;;;5051586;28;20437;-75
2022/10/22 07:40:27;;;;;;;0.50;0.40;;;18.80;99.90;;;;;;5050868;28;20457;-75
2022/10/22 07:42:55;;;;;;;0.50;0.30;;;18.50;99.90;;;;;;5051281;28;20814;-75
2022/10/22 07:45:22;;;;;;;3.60;1.07;;;18.10;99.90;;;;;;5050658;28;20437;-75
2022/10/22 07:47:49;;;;;;;0.90;0.70;;;17.90;99.90;;;;;;5051167;28;20443;-75
2022/10/22 07:50:16;;;;;;;0.50;0.37;;;17.40;99.90;;;;;;5050924;28;21053;-75
2022/10/22 07:52:45;;;;;;;3.40;0.70;;;17.10;99.90;;;;;;5050877;28;21023;-75
2022/10/22 07:55:12;;;;;;;0.50;0.40;;;17.10;99.90;;;;;;5050980;28;20942;-75
2022/10/22 07:57:39;;;;;;;0.50;0.40;;;17.00;99.90;;;;;;5050651;28;20946;-75
2022/10/22 08:00:09;;;;;;;0.67;0.50;;;17.20;99.90;;;;;;5051441;28;20469;-75
2022/10/22 08:02:36;;;;;;;17.63;2.57;;;18.30;99.90;;;;;;5051228;28;20441;-75
2022/10/22 08:05:03;;;;;;;0.60;0.50;;;19.40;99.90;;;;;;5050443;28;20448;-75
2022/10/22 08:07:30;;;;;;;1.03;0.83;;;19.50;99.90;;;;;;5051424;28;20433;-75
2022/10/22 08:09:57;;;;;;;9.23;2.00;;;19.10;99.90;;;;;;5050753;28;21041;-75
2022/10/22 08:12:24;;;;;;;0.83;0.60;;;18.50;99.90;;;;;;5051028;28;20483;-75
2022/10/22 08:14:50;;;;;;;20.03;1.20;;;18.10;99.90;;;;;;5050132;28;20532;-75
2022/10/22 08:17:19;;;;;;;0.60;0.60;;;17.80;99.90;;;;;;5050975;28;20524;-75
2022/10/22 08:19:45;;;;;;;0.50;0.40;;;17.50;99.90;;;;;;5050559;28;20925;-73
2022/10/22 08:22:12;;;;;;;0.50;0.50;;;17.30;99.90;;;;;;5051640;28;20509;-74
2022/10/22 08:24:39;;;;;;;0.50;0.40;;;17.40;99.90;;;;;;5050915;28;20528;-75
2022/10/22 08:27:06;;;;;;;0.50;0.40;;;17.40;99.90;;;;;;5050536;28;20532;-75
2022/10/22 08:29:33;;;;;;;0.70;0.50;;;17.30;99.90;;;;;;5050892;28;20457;-75
2022/10/22 08:32:01;;;;;;;0.90;0.90;;;17.20;99.90;;;;;;5050755;28;20465;-74
2022/10/22 08:34:30;;;;;;;3.17;0.70;;;17.10;99.90;;;;;;5050511;28;20436;-75
2022/10/22 08:36:57;;;;;;;0.80;0.63;;;17.00;99.90;;;;;;5052460;28;20437;-74
2022/10/22 08:39:24;;;;;;;3.20;0.60;;;16.70;99.90;;;;;;5054548;28;20531;-74
2022/10/22 08:42:04;;;;;;;0.70;0.70;;;16.60;99.90;;;;;;5054505;28;21001;-75
2022/10/22 08:44:48;;;;;;;0.60;0.50;;;16.50;99.90;;;;;;5054092;28;20447;-75
2022/10/22 08:47:35;;;;;;;1.97;0.93;;;16.40;99.90;;;;;;5054180;28;20478;-75
2022/10/22 08:50:04;;;;;;;1.00;0.80;;;16.30;99.90;;;;;;5054276;28;20858;-75
2022/10/22 08:52:33;;;;;;;0.50;0.30;;;16.30;99.90;;;;;;5053979;28;20483;-75
2022/10/22 08:55:03;;;;;;;1.20;0.93;;;16.30;99.90;;;;;;5053790;28;20938;-75
2022/10/22 08:57:50;;;;;;;0.63;0.50;;;16.40;99.90;;;;;;5054111;28;20436;-74
2022/10/22 09:00:21;;;;;;;1.73;0.60;;;16.60;99.90;;;;;;5054413;28;20460;-74
2022/10/22 09:03:01;;;;;;;0.50;0.40;;;16.50;99.90;;;;;;5054274;28;20756;-75
2022/10/22 09:05:38;;;;;;;0.50;0.40;;;16.60;99.90;;;;;;5053559;28;20432;-75
2022/10/22 09:08:05;;;;;;;4.00;1.97;;;16.60;99.90;;;;;;5054134;28;20878;-75
2022/10/22 09:10:36;;;;;;;0.80;0.73;;;16.70;99.90;;;;;;5053905;28;20457;-75
2022/10/22 09:13:03;;;;;;;0.50;0.50;;;16.70;99.90;;;;;;5053763;28;20988;-75
2022/10/22 09:15:31;;;;;;;5.67;3.40;;;16.80;99.90;;;;;;5053103;28;21009;-74
2022/10/22 09:18:08;;;;;;;0.60;0.60;;;16.90;99.90;;;;;;5053923;28;20436;-75
2022/10/22 09:20:43;;;;;;;0.70;0.60;;;16.80;99.90;;;;;;5053504;28;20473;-74
2022/10/22 09:23:29;;;;;;;7.40;0.67;;;16.90;99.90;;;;;;5053562;28;20874;-75
2022/10/22 09:25:57;;;;;;;1.37;1.07;;;17.10;99.90;;;;;;5053619;28;20435;-75
2022/10/22 09:28:24;;;;;;;0.50;0.40;;;17.10;99.90;;;;;;5053533;28;20810;-75
2022/10/22 09:30:51;;;;;;;10.43;0.70;;;17.00;99.90;;;;;;5053471;28;20984;-74
2022/10/22 09:33:25;;;;;;;3.00;2.10;;;17.00;99.90;;;;;;5053312;28;20483;-76
2022/10/22 09:35:56;;;;;;;1.73;1.63;;;16.90;99.90;;;;;;5053145;28;20446;-75
2022/10/22 09:38:26;;;;;;;0.50;0.50;;;16.80;99.90;;;;;;5053630;28;20476;-74
2022/10/22 09:40:55;;;;;;;0.60;0.60;;;17.00;99.90;;;;;;5053249;28;20469;-75
2022/10/22 09:43:22;;;;;;;0.50;0.40;;;17.00;99.90;;;;;;5053133;28;20439;-75
2022/10/22 09:45:56;;;;;;;0.50;0.40;;;16.90;99.90;;;;;;5053200;28;20439;-75
2022/10/22 09:48:30;;;;;;;0.93;0.50;;;16.80;99.90;;;;;;5052919;28;20795;-75
2022/10/22 09:51:04;;;;;;;0.50;0.40;;;16.80;99.90;;;;;;5052824;28;20877;-75
2022/10/22 09:53:36;;;;;;;0.60;0.50;;;16.80;99.90;;;;;;5053322;28;20465;-75
2022/10/22 09:56:08;;;;;;;0.53;0.47;;;16.90;99.90;;;;;;5053098;28;20449;-76
2022/10/22 09:58:42;;;;;;;0.60;0.50;;;16.90;99.90;;;;;;5052702;28;20433;-75
2022/10/22 10:01:16;;;;;;;0.70;0.50;;;16.80;99.90;;;;;;5052746;28;20480;-75
2022/10/22 10:03:43;;;;;;;0.50;0.33;;;16.80;99.90;;;;;;5053135;28;20440;-75
2022/10/22 10:06:11;;;;;;;0.60;0.40;;;16.80;99.90;;;;;;5052632;28;20445;-75
2022/10/22 10:08:38;;;;;;;1.40;1.30;;;17.00;99.90;;;;;;5052794;28;20437;-77
2022/10/22 10:11:10;;;;;;;0.60;0.47;;;17.20;99.90;;;;;;5052830;28;20978;-75
2022/10/22 10:13:47;;;;;;;0.87;0.60;;;17.20;99.90;;;;;;5052452;28;20499;-75
2022/10/22 10:16:26;;;;;;;3.40;1.03;;;17.00;99.90;;;;;;5052743;28;20429;-75
2022/10/22 10:19:13;;;;;;;0.50;0.40;;;17.00;99.90;;;;;;5052887;28;20441;-75
2022/10/22 10:21:49;;;;;;;0.50;0.40;;;17.00;99.90;;;;;;5053015;28;20520;-75
2022/10/22 10:24:23;;;;;;;0.50;0.40;;;17.10;99.90;;;;;;5052031;28;20429;-72
2022/10/22 10:26:58;;;;;;;0.60;0.60;;;17.20;99.90;;;;;;5052160;28;20443;-75
2022/10/22 10:29:39;;;;;;;0.70;0.67;;;17.20;99.90;;;;;;5052095;28;20423;-74
2022/10/22 10:32:38;;;;;;;0.60;0.43;;;17.20;99.90;;;;;;5052512;28;20858;-75
2022/10/22 10:35:18;;;;;;;0.50;0.40;;;17.20;99.90;;;;;;5052322;28;20444;-74
2022/10/22 10:37:57;;;;;;;0.50;0.40;;;17.20;99.90;;;;;;5052240;28;20437;-74
2022/10/22 10:40:33;;;;;;;0.67;0.53;;;17.40;99.90;;;;;;5052165;28;20457;-75
2022/10/22 10:43:06;;;;;;;4.63;0.53;;;17.50;99.90;;;;;;5051965;28;20439;-74
2022/10/22 10:45:42;;;;;;;1.67;1.13;;;17.60;99.90;;;;;;5052139;28;20452;-74
2022/10/22 10:48:22;;;;;;;0.63;0.63;;;17.70;99.90;;;;;;5051962;28;20421;-74
2022/10/22 10:50:59;;;;;;;0.50;0.40;;;17.80;99.90;;;;;;5051488;28;20473;-75
2022/10/22 10:53:42;;;;;;;0.50;0.40;;;18.00;99.90;;;;;;5052170;28;20473;-75
2022/10/22 10:56:23;;;;;;;1.27;1.17;;;18.10;99.90;;;;;;5051531;28;20445;-75
2022/10/22 10:58:59;;;;;;;0.50;0.30;;;18.10;99.90;;;;;;5051157;28;20427;-74
2022/10/22 11:01:34;;;;;;;0.50;0.37;;;18.00;99.90;;;;;;5051794;28;20466;-74
2022/10/22 11:04:26;;;;;;;3.77;1.27;;;18.00;99.90;;;;;;5051771;28;20445;-74
2022/10/22 11:06:57;;;;;;;1.23;0.60;;;17.90;99.90;;;;;;5051526;28;20449;-76
2022/10/22 11:09:30;;;;;;;1.83;1.07;;;17.70;99.90;;;;;;5051715;28;20425;-76
2022/10/22 11:12:00;;;;;;;2.13;1.10;;;17.70;99.90;;;;;;5051792;28;20429;-75
2022/10/22 11:14:32;;;;;;;2.40;1.20;;;17.60;99.90;;;;;;5050847;28;20430;-76
2022/10/22 11:17:04;;;;;;;0.50;0.30;;;17.50;99.90;;;;;;5051977;28;20438;-76
2022/10/22 11:19:37;;;;;;;0.50;0.40;;;17.50;99.90;;;;;;5050371;28;20453;-76
2022/10/22 11:22:10;;;;;;;0.70;0.60;;;17.60;99.90;;;;;;5051899;28;20424;-77
2022/10/22 11:24:49;;;;;;;0.90;0.70;;;17.70;99.90;;;;;;5050861;28;20448;-76
2022/10/22 11:27:25;;;;;;;0.50;0.40;;;17.60;99.90;;;;;;5051536;28;20547;-74
2022/10/22 11:29:56;;;;;;;2.13;0.70;;;17.60;99.90;;;;;;5051230;28;20465;-76
2022/10/22 11:32:25;;;;;;;0.67;0.67;;;17.70;99.90;;;;;;5051533;28;20477;-76
2022/10/22 11:34:56;;;;;;;0.50;0.33;;;17.70;99.90;;;;;;5051559;28;20491;-76
2022/10/22 11:37:26;;;;;;;0.70;0.40;;;17.80;99.90;;;;;;5050909;28;20528;-76
2022/10/22 11:39:58;;;;;;;0.90;0.90;;;17.80;99.90;;;;;;5051348;28;20465;-76
2022/10/22 11:42:34;;;;;;;2.40;0.60;;;17.80;99.90;;;;;;5051233;28;20437;-76
2022/10/22 11:45:03;;;;;;;0.53;0.43;;;17.70;99.90;;;;;;5051223;28;20492;-76
2022/10/22 11:47:53;;;;;;;0.80;0.67;;;17.80;99.90;;;;;;5051099;28;20441;-76
2022/10/22 11:50:24;;;;;;;0.53;0.43;;;18.00;99.90;;;;;;5050640;28;20473;-76
2022/10/22 11:53:01;;;;;;;1.03;0.50;;;17.80;99.90;;;;;;5051272;28;20461;-76
2022/10/22 11:55:46;;;;;;;0.50;0.40;;;17.70;99.90;;;;;;5051131;28;20504;-76
2022/10/22 11:58:32;;;;;;;0.50;0.40;;;17.80;99.90;;;;;;5051020;28;20453;-76
2022/10/22 12:01:18;;;;;;;2.90;0.90;;;17.80;99.90;;;;;;5050977;28;20457;-76
2022/10/22 12:03:49;;;;;;;8.70;0.57;;;17.60;99.90;;;;;;5051169;28;20787;-75
2022/10/22 12:06:23;;;;;;;0.80;0.50;;;17.40;99.90;;;;;;5051245;28;20437;-75
2022/10/22 12:08:58;;;;;;;0.73;0.57;;;17.50;99.90;;;;;;5050540;28;20788;-74
2022/10/22 12:11:35;;;;;;;0.90;0.57;;;17.50;99.90;;;;;;5054085;28;20489;-76
2022/10/22 12:14:17;;;;;;;0.50;0.40;;;17.50;99.90;;;;;;5054303;28;20460;-75
2022/10/22 12:16:46;;;;;;;1.13;1.03;;;17.50;99.90;;;;;;5055004;28;20438;-76
2022/10/22 12:19:16;;;;;;;0.50;0.30;;;17.50;99.90;;;;;;5054603;28;20441;-76
2022/10/22 12:21:48;;;;;;;0.50;0.40;;;17.60;99.90;;;;;;5054218;28;20531;-75
2022/10/22 12:24:17;;;;;;;0.60;0.40;;;17.60;99.90;;;;;;5054582;28;20422;-76
2022/10/22 12:26:45;;;;;;;0.50;0.40;;;17.60;99.90;;;;;;5054930;28;20448;-76
2022/10/22 12:29:15;;;;;;;2.53;1.90;;;17.60;99.90;;;;;;5054704;28;20433;-76
2022/10/22 12:31:44;;;;;;;0.60;0.40;;;17.60;99.90;;;;;;5054280;28;20968;-76
2022/10/22 12:34:15;;;;;;;0.50;0.30;;;17.70;99.90;;;;;;5054203;28;20480;-76
2022/10/22 12:36:42;;;;;;;0.50;0.40;;;17.80;99.90;;;;;;5054350;28;20443;-76
2022/10/22 12:39:12;;;;;;;0.70;0.60;;;17.90;99.90;;;;;;5054636;28;20437;-75
2022/10/22 12:41:40;;;;;;;2.73;0.53;;;17.80;99.90;;;;;;5055107;28;20792;-75
2022/10/22 12:44:13;;;;;;;0.50;0.40;;;17.70;99.90;;;;;;5053552;28;20604;-76
2022/10/22 12:46:40;;;;;;;0.50;0.30;;;17.60;99.90;;;;;;5054434;28;20448;-76
2022/10/22 12:49:14;;;;;;;0.60;0.50;;;17.70;99.90;;;;;;5054185;28;20441;-76
2022/10/22 12:51:42;;;;;;;21.63;1.63;;;17.60;99.90;;;;;;5054613;28;20425;-76
2022/10/22 12:54:15;;;;;;;3.13;2.10;;;17.70;99.90;;;;;;5090929;22;20497;-78
2022/10/22 12:56:41;;;;;;;0.50;0.40;;;17.80;99.90;;;;;;5113412;28;20462;-77
2022/10/22 12:59:18;;;;;;;0.50;0.40;;;18.00;99.90;;;;;;5115127;28;20430;-78
2022/10/22 13:01:45;;;;;;;0.70;0.50;;;18.10;99.90;;;;;;5115684;28;20957;-79